OGF im Turnier von 01.02.2019 bis 01.03.2019

OGFs Ergebnis

Rang 77.
Turnierpunkte 1032
Gespielt : Gewonnen 100 : 63
Schneider 17
Bilanz 603:448

OGFs Bummerln

Zeit Gegner Ergebnis Ende
14:43:40 am 05.02.2019 Ezel Bayraktar 7:0 normal
14:39:15 am 05.02.2019 schnopfi 8:6 normal
14:35:00 am 05.02.2019 Gurki 4:8 normal
14:30:57 am 05.02.2019 Stefan Stichauner 7:5 normal
14:29:21 am 05.02.2019 ibi 8:0 normal
14:25:31 am 05.02.2019 marianne 2:7 normal
14:18:29 am 05.02.2019 Geggi Strobl 6:8 normal
14:14:57 am 05.02.2019 Marco Dorfer 7:3 normal
14:11:34 am 05.02.2019 lindner 0:7 normal
14:07:14 am 05.02.2019 iPhone von Friederike 3:8 normal
14:01:23 am 05.02.2019 Pepca 8:4 normal
13:54:49 am 05.02.2019 Dg171 9:5 normal
13:51:20 am 05.02.2019 Gustavo Limes 0:7 normal
13:45:12 am 05.02.2019 Gasthaus Schliessleder 4:7 normal
13:41:15 am 05.02.2019 heike 7:2 normal
13:37:11 am 05.02.2019 Tóth Bence 8:2 normal
13:30:36 am 05.02.2019 *Mario Gindl 7:0 autocontnormal
13:26:38 am 05.02.2019 Heimo Windhofer 3:8 normal
13:20:06 am 05.02.2019 Sven Walter 9:5 normal
13:14:13 am 05.02.2019 *Martin M. 8:2 autocontnormal
13:09:40 am 05.02.2019 momo69 8:5 normal
13:06:16 am 05.02.2019 Martin 8:3 normal
12:58:14 am 05.02.2019 Lazar 5:7 normal
12:52:03 am 05.02.2019 El Schnapso 8:5 normal
12:46:45 am 05.02.2019 Hob Di 7:5 normal
12:41:46 am 05.02.2019 bibi82 7:2 normal
12:35:35 am 05.02.2019 Mario Neubauer 8:3 normal
12:31:45 am 05.02.2019 xyz 6:7 normal
12:25:06 am 05.02.2019 Bindi 2:7 normal
12:19:20 am 05.02.2019 RNE-L21 5:8 normal
12:11:41 am 05.02.2019 jofo 7:5 normal
12:06:12 am 05.02.2019 Fridolin 7:4 normal
12:00:40 am 05.02.2019 Ursula Steger 7:3 normal
11:56:09 am 05.02.2019 zahlihi 9:0 normal
11:50:55 am 05.02.2019 Hallo 0:8 normal
11:45:42 am 05.02.2019 Aviator 8:2 normal
11:39:08 am 05.02.2019 Speedbert 63 5:9 normal
11:33:38 am 05.02.2019 Lotti 7:5 normal
11:29:57 am 05.02.2019 Muso 8:5 normal
11:25:31 am 05.02.2019 Christian Holzmann 9:1 normal
11:23:34 am 05.02.2019 Horsti 7:0 normal
11:13:35 am 05.02.2019 *klaus 8:4 autocontnormal
11:08:38 am 05.02.2019 Irmi160 6:8 normal
11:05:57 am 05.02.2019 umi touch 3:7 normal
10:26:22 am 04.02.2019 Adrian 4:8 normal
10:20:05 am 04.02.2019 Aha 7:2 normal
10:12:30 am 04.02.2019 chipsy 8:6 normal
10:09:27 am 04.02.2019 ronny 7:5 normal
10:04:46 am 04.02.2019 Sabine 3:7 normal
09:59:52 am 04.02.2019 Hr Heinz 7:5 normal
09:55:14 am 04.02.2019 Thomas Baumgartner 7:6 normal
09:50:39 am 04.02.2019 snoopy1 7:2 normal
09:47:00 am 04.02.2019 Ina K. 1:8 normal
09:43:36 am 04.02.2019 Flo92 7:1 normal
09:35:09 am 04.02.2019 almi 4:8 normal
09:27:30 am 04.02.2019 Wolfgang Moser 8:3 normal
09:25:22 am 04.02.2019 Erich 8:0 normal
14:02:24 am 03.02.2019 Häferl 4:8 normal
13:59:01 am 03.02.2019 kurt 3:8 normal
13:55:37 am 03.02.2019 Aki 9:0 normal
13:51:24 am 03.02.2019 Güschge 3:9 normal
13:44:48 am 03.02.2019 mex85 4:7 normal
13:39:33 am 03.02.2019 DEjan SLO 7:4 normal
13:35:41 am 03.02.2019 cb 2:7 normal
13:32:53 am 03.02.2019 Peter2000PeterPingist 7:2 normal
15:12:07 am 02.02.2019 Roman Unger 6:7 normal
15:05:48 am 02.02.2019 Maba 6:7 normal
15:00:55 am 02.02.2019 Karlheinz 8:2 normal
14:55:12 am 02.02.2019 DELETED 7:4 normal
14:51:07 am 02.02.2019 aercrist 3:7 normal
14:46:19 am 02.02.2019 DELETED 7:3 normal
14:40:56 am 02.02.2019 gertrude böheim 7:6 normal
14:35:33 am 02.02.2019 Lutwieg Mayerhofer 7:1 normal
14:30:51 am 02.02.2019 Brigitte Ulm 7:5 normal
14:26:45 am 02.02.2019 Chrisu 5:7 normal
14:23:37 am 02.02.2019 Bruno 8:0 normal
14:20:26 am 02.02.2019 Lisa 1:7 normal
14:14:53 am 02.02.2019 HPS46 4:7 normal
14:10:08 am 02.02.2019 NordMead 8:0 normal
14:04:33 am 02.02.2019 DELETED 7:4 normal
14:00:17 am 02.02.2019 Anton Buggelsheim 6:8 normal
13:54:46 am 02.02.2019 Szabi 8:4 normal
20:11:25 am 01.02.2019 mary0F 4:7 normal
20:09:15 am 01.02.2019 DELETED 8:0 normal
20:02:48 am 01.02.2019 martschi 7:1 normal
19:57:58 am 01.02.2019 GERU 8:0 normal
19:55:01 am 01.02.2019 Fred Nawratil 8:0 normal
19:47:17 am 01.02.2019 gertschi 9:6 normal
19:39:44 am 01.02.2019 ml007 8:3 normal
19:37:37 am 01.02.2019 Stefan 7:0 normal
15:49:21 am 01.02.2019 Adolf 5:8 normal
15:46:45 am 01.02.2019 refpi4 7:0 normal
15:43:42 am 01.02.2019 Mimi Kraus 2:7 normal
15:38:32 am 01.02.2019 miata5 7:6 normal
15:36:16 am 01.02.2019 Günter 7:0 normal
15:31:18 am 01.02.2019 Sonja 0:9 normal
15:27:27 am 01.02.2019 Märzi 8:2 normal
15:25:33 am 01.02.2019 Arthur 8:0 normal
15:22:33 am 01.02.2019 Chris.P. 7:0 normal
15:18:39 am 01.02.2019 Mary Playing 1:7 normal